Time;durP1;ratioP1;P1;durP2;ratioP2;P2;SDS_P1;SDS_P2;PMS_P1;PMS_P2;Temp;Humidity;BMP_temperature;BMP_pressure;BME280_temperature;BME280_humidity;BME280_pressure;Samples;Min_cycle;Max_cycle;Signal;HPM_P1;HPM_P2
2021/09/17 00:01:14;;;;;;;1180.55;609.92;;;;;12.10;101585.00;;;;4873046;29;20059;-76
2021/09/17 00:03:43;;;;;;;89.00;59.13;;;;;11.90;101569.00;;;;4872923;29;20057;-76
2021/09/17 00:06:13;;;;;;;1.33;0.63;;;;;12.00;101577.00;;;;4873580;29;20052;-76
2021/09/17 00:08:42;;;;;;;108.70;100.00;;;;;12.20;101599.00;;;;4872827;29;20049;-76
2021/09/17 00:11:11;;;;;;;11.02;7.38;;;;;12.40;101589.00;;;;4873538;29;20056;-77
2021/09/17 00:13:40;;;;;;;12.05;11.00;;;;;12.50;101618.00;;;;4873226;29;20108;-76
2021/09/17 00:16:09;;;;;;;4.53;4.13;;;;;12.60;101588.00;;;;4873052;29;20052;-76
2021/09/17 00:18:38;;;;;;;7.03;4.03;;;;;12.50;101589.00;;;;4872958;29;20517;-76
2021/09/17 00:21:07;;;;;;;2.10;0.90;;;;;12.40;101605.00;;;;4872032;29;20045;-76
2021/09/17 00:23:37;;;;;;;244.30;88.20;;;;;12.40;101596.00;;;;4872867;29;20060;-76
2021/09/17 00:26:06;;;;;;;4.30;0.63;;;;;12.50;101601.00;;;;4872769;29;20512;-76
2021/09/17 00:28:35;;;;;;;64.05;6.93;;;;;12.60;101582.00;;;;4872257;29;20088;-77
2021/09/17 00:31:04;;;;;;;418.80;75.20;;;;;12.60;101588.00;;;;4873461;29;20057;-76
2021/09/17 00:33:33;;;;;;;16.95;4.90;;;;;12.50;101552.00;;;;4872832;29;20088;-76
2021/09/17 00:36:05;;;;;;;6.90;1.80;;;;;12.50;101566.00;;;;4872935;29;20063;-77
2021/09/17 00:38:35;;;;;;;3.85;1.52;;;;;12.40;101560.00;;;;4872484;29;20505;-76
2021/09/17 00:41:04;;;;;;;118.00;67.63;;;;;12.20;101573.00;;;;4872779;29;20641;-78
2021/09/17 00:43:33;;;;;;;40.75;12.52;;;;;12.20;101563.00;;;;4872643;29;20069;-76
2021/09/17 00:46:02;;;;;;;49.20;5.03;;;;;12.20;101570.00;;;;4872833;29;20045;-77
2021/09/17 00:48:31;;;;;;;746.33;148.25;;;;;12.30;101572.00;;;;4871764;29;20061;-77
2021/09/17 00:51:00;;;;;;;477.25;43.60;;;;;12.30;101561.00;;;;4872643;29;20067;-77
2021/09/17 00:53:33;;;;;;;1.45;1.40;;;;;12.10;101572.00;;;;4872537;29;20048;-78
2021/09/17 00:56:04;;;;;;;23.80;20.55;;;;;12.00;101563.00;;;;4871669;29;20060;-78
2021/09/17 00:58:33;;;;;;;3.20;1.52;;;;;11.90;101548.00;;;;4872944;29;20591;-77
2021/09/17 01:01:02;;;;;;;31.90;8.38;;;;;11.90;101534.00;;;;4871555;29;20086;-76
2021/09/17 01:03:31;;;;;;;73.43;48.05;;;;;11.80;101542.00;;;;4872130;29;20053;-76
2021/09/17 01:06:04;;;;;;;8.55;1.38;;;;;11.80;101563.00;;;;4872639;29;20152;-77
2021/09/17 01:08:34;;;;;;;3.75;1.60;;;;;11.80;101573.00;;;;4872587;29;20080;-76
2021/09/17 01:11:03;;;;;;;250.88;79.68;;;;;11.50;101579.00;;;;4872577;29;20065;-76
2021/09/17 01:13:32;;;;;;;28.13;12.20;;;;;11.40;101586.00;;;;4870972;29;20056;-77
2021/09/17 01:16:01;;;;;;;13.93;8.70;;;;;11.20;101574.00;;;;4870731;29;20056;-76
2021/09/17 01:18:31;;;;;;;1.00;0.50;;;;;11.20;101535.00;;;;4872599;29;20474;-76
2021/09/17 01:21:01;;;;;;;40.22;36.53;;;;;11.10;101534.00;;;;4872261;29;20057;-76
2021/09/17 01:23:31;;;;;;;5.10;4.80;;;;;11.00;101525.00;;;;4871026;29;20061;-76
2021/09/17 01:26:00;;;;;;;150.98;134.38;;;;;11.10;101526.00;;;;4871408;29;20060;-76
2021/09/17 01:28:32;;;;;;;9.07;5.85;;;;;11.20;101529.00;;;;4871984;29;20117;-77
2021/09/17 01:31:01;;;;;;;8.75;4.55;;;;;11.30;101560.00;;;;4872073;29;20132;-77
2021/09/17 01:33:30;;;;;;;6.57;2.88;;;;;11.40;101567.00;;;;4875215;29;20045;-76
2021/09/17 01:36:05;;;;;;;8.20;2.10;;;;;11.30;101560.00;;;;4875995;29;20053;-77
2021/09/17 01:38:36;;;;;;;109.88;64.57;;;;;11.20;101577.00;;;;4875528;29;20064;-77
2021/09/17 01:41:05;;;;;;;103.45;93.38;;;;;11.10;101570.00;;;;4876063;29;20057;-76
2021/09/17 01:43:34;;;;;;;5.35;1.63;;;;;10.90;101570.00;;;;4875456;29;20059;-77
2021/09/17 01:46:04;;;;;;;156.70;128.02;;;;;10.90;101575.00;;;;4876189;29;20144;-76
2021/09/17 01:48:33;;;;;;;54.60;39.47;;;;;10.90;101570.00;;;;4875121;29;20442;-76
2021/09/17 01:51:02;;;;;;;16.23;14.90;;;;;10.80;101571.00;;;;4875715;29;20061;-77
2021/09/17 01:53:34;;;;;;;1.20;1.10;;;;;10.70;101578.00;;;;4875666;29;20053;-76
2021/09/17 01:56:04;;;;;;;3.83;3.60;;;;;10.60;101588.00;;;;4875368;29;20053;-77
2021/09/17 01:58:33;;;;;;;3.83;1.20;;;;;10.50;101562.00;;;;4875444;29;20061;-77
2021/09/17 02:01:03;;;;;;;5.32;1.52;;;;;10.50;101576.00;;;;4874821;29;20053;-76
2021/09/17 02:03:34;;;;;;;3.85;1.15;;;;;10.50;101557.00;;;;4875407;29;20147;-76
2021/09/17 02:06:03;;;;;;;5.82;1.10;;;;;10.50;101561.00;;;;4875567;29;20071;-77
2021/09/17 02:08:32;;;;;;;6.25;1.63;;;;;10.40;101548.00;;;;4875304;29;20060;-76
2021/09/17 02:11:01;;;;;;;6.13;1.35;;;;;10.30;101593.00;;;;4875262;29;20125;-77
2021/09/17 02:13:30;;;;;;;7.43;1.88;;;;;10.30;101571.00;;;;4875245;29;20075;-76
2021/09/17 02:15:59;;;;;;;5.05;1.15;;;;;10.30;101547.00;;;;4875017;29;20484;-76
2021/09/17 02:18:28;;;;;;;7.32;1.10;;;;;10.20;101540.00;;;;4875284;29;20056;-77
2021/09/17 02:20:57;;;;;;;6.55;2.00;;;;;10.20;101538.00;;;;4873855;29;20063;-76
2021/09/17 02:23:27;;;;;;;5.80;1.35;;;;;10.20;101541.00;;;;4875065;29;20052;-77
2021/09/17 02:25:56;;;;;;;2.40;0.90;;;;;10.10;101516.00;;;;4875806;29;20493;-76
2021/09/17 02:28:25;;;;;;;6.13;1.27;;;;;10.10;101542.00;;;;4874666;29;20092;-77
2021/09/17 02:30:54;;;;;;;1.73;1.05;;;;;10.00;101553.00;;;;4874766;29;20064;-77
2021/09/17 02:33:23;;;;;;;3.10;1.65;;;;;10.00;101525.00;;;;4874747;29;20547;-76
2021/09/17 02:35:52;;;;;;;2.38;1.75;;;;;10.10;101517.00;;;;4874537;29;20064;-76
2021/09/17 02:38:22;;;;;;;2.60;1.20;;;;;10.00;101533.00;;;;4874993;29;20052;-76
2021/09/17 02:40:52;;;;;;;2.70;1.45;;;;;10.00;101524.00;;;;4874280;29;20049;-77
2021/09/17 02:43:22;;;;;;;9.50;2.30;;;;;10.20;101511.00;;;;4874748;29;20053;-76
2021/09/17 02:45:51;;;;;;;1999.90;999.90;;;;;10.10;101543.00;;;;4874226;29;20053;-77
2021/09/17 02:48:20;;;;;;;1532.28;772.17;;;;;10.20;101524.00;;;;4874277;29;20505;-77
2021/09/17 02:50:49;;;;;;;5.03;4.63;;;;;10.20;101530.00;;;;4872577;29;20107;-77
2021/09/17 02:53:18;;;;;;;7.95;6.00;;;;;10.10;101522.00;;;;4874267;29;20065;-76
2021/09/17 02:55:47;;;;;;;5.85;3.25;;;;;10.00;101551.00;;;;4874728;29;20072;-77
2021/09/17 02:58:16;;;;;;;12.38;3.50;;;;;10.00;101519.00;;;;4874292;29;20083;-76
2021/09/17 03:00:45;;;;;;;94.60;51.33;;;;;10.00;101500.00;;;;4873889;29;20056;-76
2021/09/17 03:03:16;;;;;;;6.60;2.13;;;;;10.00;101520.00;;;;4874015;29;20049;-77
2021/09/17 03:05:45;;;;;;;2.67;2.58;;;;;10.00;101528.00;;;;4874085;29;20053;-76
2021/09/17 03:08:14;;;;;;;1999.90;999.90;;;;;10.00;101505.00;;;;4874101;29;20057;-76
2021/09/17 03:10:43;;;;;;;1503.88;753.65;;;;;10.00;101491.00;;;;4873878;29;20092;-76
2021/09/17 03:13:13;;;;;;;89.88;58.05;;;;;9.90;101494.00;;;;4874241;29;20064;-76
2021/09/17 03:15:42;;;;;;;49.10;45.08;;;;;9.90;101495.00;;;;4874386;29;20131;-76
2021/09/17 03:18:11;;;;;;;5.75;3.55;;;;;9.90;101488.00;;;;4873685;29;20053;-76
2021/09/17 03:20:41;;;;;;;4.35;3.67;;;;;10.00;101483.00;;;;4874169;29;20053;-76
2021/09/17 03:23:11;;;;;;;5.85;3.40;;;;;10.00;101483.00;;;;4874197;29;20531;-76
2021/09/17 03:25:40;;;;;;;6.22;5.50;;;;;10.00;101470.00;;;;4874020;29;20079;-77
2021/09/17 03:28:09;;;;;;;16.92;16.02;;;;;10.00;101447.00;;;;4873340;29;20068;-76
2021/09/17 03:30:39;;;;;;;1999.90;999.90;;;;;10.00;101466.00;;;;4873719;29;20534;-77
2021/09/17 03:33:11;;;;;;;166.60;154.40;;;;;10.00;101471.00;;;;4873576;29;20057;-76
2021/09/17 03:35:40;;;;;;;4.70;1.00;;;;;10.00;101482.00;;;;4874038;29;20147;-76
2021/09/17 03:38:09;;;;;;;173.00;157.38;;;;;10.10;101468.00;;;;4873965;29;20131;-77
2021/09/17 03:40:39;;;;;;;1.40;1.25;;;;;10.10;101458.00;;;;4874274;29;20052;-77
2021/09/17 03:43:09;;;;;;;17.10;13.57;;;;;10.10;101434.00;;;;4873207;29;20503;-77
2021/09/17 03:45:38;;;;;;;2.35;1.10;;;;;10.10;101448.00;;;;4873704;29;20513;-77
2021/09/17 03:48:08;;;;;;;266.90;105.20;;;;;10.20;101442.00;;;;4873582;29;20088;-77
2021/09/17 03:50:38;;;;;;;1429.40;752.83;;;;;10.10;101439.00;;;;4873448;29;20437;-77
2021/09/17 03:53:09;;;;;;;1999.90;999.90;;;;;10.10;101445.00;;;;4873358;29;20075;-77
2021/09/17 03:55:39;;;;;;;170.23;125.13;;;;;10.00;101432.00;;;;4872284;29;20055;-77
2021/09/17 03:58:08;;;;;;;1999.90;999.90;;;;;10.00;101440.00;;;;4873365;29;20133;-77
2021/09/17 04:00:38;;;;;;;1999.90;999.90;;;;;9.90;101432.00;;;;4874170;29;20076;-77
2021/09/17 04:03:07;;;;;;;1999.90;999.90;;;;;9.90;101428.00;;;;4873221;29;20049;-77
2021/09/17 04:05:36;;;;;;;1999.90;999.90;;;;;9.80;101443.00;;;;4873545;29;20061;-76
2021/09/17 04:08:05;;;;;;;1999.90;999.90;;;;;9.70;101424.00;;;;4872682;29;20244;-76
2021/09/17 04:10:34;;;;;;;1999.90;999.90;;;;;9.70;101400.00;;;;4872969;29;20053;-76
2021/09/17 04:13:04;;;;;;;7.53;7.10;;;;;9.70;101405.00;;;;4873288;29;20064;-77
2021/09/17 04:15:33;;;;;;;1999.90;999.90;;;;;9.80;101410.00;;;;4873090;29;20071;-76
2021/09/17 04:18:02;;;;;;;37.28;34.80;;;;;9.80;101377.00;;;;4873091;29;20055;-77
2021/09/17 04:20:31;;;;;;;3.33;1.30;;;;;9.70;101375.00;;;;4873118;29;20409;-76
2021/09/17 04:23:01;;;;;;;53.50;5.80;;;;;9.70;101385.00;;;;4873634;29;20057;-77
2021/09/17 04:25:30;;;;;;;195.48;32.65;;;;;9.60;101413.00;;;;4873751;29;20490;-78
2021/09/17 04:28:00;;;;;;;64.20;31.08;;;;;9.60;101408.00;;;;4873173;29;20057;-77
2021/09/17 04:30:29;;;;;;;65.57;20.35;;;;;9.60;101402.00;;;;4872620;29;20053;-76
2021/09/17 04:32:58;;;;;;;5.47;1.20;;;;;9.60;101391.00;;;;4872760;29;20056;-77
2021/09/17 04:35:27;;;;;;;1.40;1.10;;;;;9.50;101391.00;;;;4872368;29;20052;-77
2021/09/17 04:37:59;;;;;;;7.00;6.40;;;;;9.60;101391.00;;;;4873506;29;20053;-77
2021/09/17 04:40:28;;;;;;;3.08;1.63;;;;;9.60;101415.00;;;;4872708;29;20053;-77
2021/09/17 04:42:58;;;;;;;3.00;1.50;;;;;9.50;101400.00;;;;4872575;29;20076;-74
2021/09/17 04:45:28;;;;;;;3.13;1.48;;;;;9.50;101392.00;;;;4872335;29;20075;-77
2021/09/17 04:47:57;;;;;;;5.40;1.27;;;;;9.50;101379.00;;;;4872907;29;20144;-77
2021/09/17 04:50:27;;;;;;;2.05;1.45;;;;;9.50;101376.00;;;;4872855;29;20057;-77
2021/09/17 04:52:56;;;;;;;564.90;82.68;;;;;9.60;101352.00;;;;4872164;29;20612;-77
2021/09/17 04:55:25;;;;;;;1.83;0.82;;;;;9.50;101375.00;;;;4872777;29;20049;-77
2021/09/17 04:57:54;;;;;;;9.85;8.95;;;;;9.60;101348.00;;;;4872182;29;20053;-77
2021/09/17 05:00:23;;;;;;;7.63;1.85;;;;;9.70;101355.00;;;;4872166;29;20567;-77
2021/09/17 05:02:52;;;;;;;9.77;7.15;;;;;9.80;101350.00;;;;4872232;29;20049;-77
2021/09/17 05:05:22;;;;;;;3.55;1.25;;;;;10.00;101334.00;;;;4872315;29;20524;-77
2021/09/17 05:07:51;;;;;;;5.38;4.97;;;;;10.10;101331.00;;;;4875917;29;20052;-76
2021/09/17 05:10:21;;;;;;;4.68;1.02;;;;;10.10;101345.00;;;;4879211;29;20093;-77
2021/09/17 05:12:50;;;;;;;6.93;2.05;;;;;10.20;101317.00;;;;4878279;29;20596;-76
2021/09/17 05:15:19;;;;;;;10.25;2.60;;;;;10.20;101324.00;;;;4877626;29;20052;-77
2021/09/17 05:17:51;;;;;;;5.82;1.90;;;;;10.20;101322.00;;;;4878889;29;20053;-76
2021/09/17 05:20:20;;;;;;;6.63;2.33;;;;;10.30;101304.00;;;;4878314;29;20067;-77
2021/09/17 05:22:49;;;;;;;4.20;1.58;;;;;10.30;101321.00;;;;4878226;29;20626;-77
2021/09/17 05:25:18;;;;;;;5.90;1.90;;;;;10.30;101307.00;;;;4878265;29;20444;-77
2021/09/17 05:27:47;;;;;;;7.65;2.45;;;;;10.30;101323.00;;;;4878382;29;20136;-77
2021/09/17 05:30:16;;;;;;;10.00;2.47;;;;;10.20;101316.00;;;;4878437;29;20052;-77
2021/09/17 05:32:45;;;;;;;6.90;2.05;;;;;10.30;101297.00;;;;4878515;29;20049;-76
2021/09/17 05:35:14;;;;;;;2.47;0.50;;;;;10.20;101296.00;;;;4878619;29;20059;-77
2021/09/17 05:37:43;;;;;;;1.55;1.10;;;;;10.20;101305.00;;;;4878046;29;20057;-77
2021/09/17 05:40:13;;;;;;;8.48;2.08;;;;;10.20;101304.00;;;;4878310;29;20049;-77
2021/09/17 05:42:42;;;;;;;4.63;2.15;;;;;10.20;101303.00;;;;4878267;29;20057;-76
2021/09/17 05:45:11;;;;;;;7.20;2.50;;;;;10.20;101314.00;;;;4878616;29;20053;-77
2021/09/17 05:47:43;;;;;;;13.55;2.55;;;;;10.20;101295.00;;;;4878120;29;20432;-77
2021/09/17 05:50:13;;;;;;;8.48;2.60;;;;;10.30;101324.00;;;;4878046;29;20069;-77
2021/09/17 05:52:42;;;;;;;14.02;2.95;;;;;10.30;101301.00;;;;4879104;29;20056;-77
2021/09/17 05:55:11;;;;;;;7.60;2.55;;;;;10.40;101295.00;;;;4878347;29;20059;-76
2021/09/17 05:57:41;;;;;;;3.47;2.45;;;;;10.50;101273.00;;;;4877985;29;20045;-76
2021/09/17 06:00:11;;;;;;;11.40;3.00;;;;;10.50;101288.00;;;;4878751;29;20060;-77
2021/09/17 06:02:40;;;;;;;1.65;1.05;;;;;10.60;101291.00;;;;4878497;29;20053;-77
2021/09/17 06:05:10;;;;;;;5.20;2.75;;;;;10.80;101279.00;;;;4878295;29;20049;-76
2021/09/17 06:07:41;;;;;;;5.97;1.98;;;;;10.90;101277.00;;;;4878096;29;20053;-77
2021/09/17 06:10:11;;;;;;;6.13;3.00;;;;;10.90;101270.00;;;;4878433;29;20088;-77
2021/09/17 06:12:40;;;;;;;6.68;2.42;;;;;11.00;101274.00;;;;4878051;29;20436;-78
2021/09/17 06:15:10;;;;;;;6.38;2.42;;;;;11.10;101276.00;;;;4878532;29;20057;-77
2021/09/17 06:17:42;;;;;;;11.88;2.58;;;;;11.10;101266.00;;;;4877907;29;20068;-77
2021/09/17 06:20:13;;;;;;;6.00;2.10;;;;;11.20;101267.00;;;;4874297;29;20080;-77
2021/09/17 06:22:45;;;;;;;5.88;2.38;;;;;11.20;101264.00;;;;4875264;29;20535;-76
2021/09/17 06:25:15;;;;;;;9.45;2.47;;;;;11.30;101270.00;;;;4875039;29;20429;-77
2021/09/17 06:27:45;;;;;;;2.35;1.77;;;;;11.30;101257.00;;;;4874958;29;20121;-77
2021/09/17 06:30:15;;;;;;;6.72;2.70;;;;;11.40;101261.00;;;;4875052;29;20072;-77
2021/09/17 06:32:45;;;;;;;8.35;2.67;;;;;11.40;101243.00;;;;4875122;29;20068;-77
2021/09/17 06:35:14;;;;;;;13.55;12.30;;;;;11.40;101249.00;;;;4875017;29;20734;-77
2021/09/17 06:37:52;;;;;;;26.33;24.65;;;;;11.40;101258.00;;;;4874712;29;20049;-76
2021/09/17 06:40:23;;;;;;;4.22;1.83;;;;;11.40;101273.00;;;;4874410;29;20396;-77
2021/09/17 06:42:54;;;;;;;9.55;3.00;;;;;11.40;101283.00;;;;4874719;29;20445;-76
2021/09/17 06:45:23;;;;;;;9.63;3.03;;;;;11.40;101256.00;;;;4875341;29;20053;-77
2021/09/17 06:47:55;;;;;;;9.38;3.17;;;;;11.40;101246.00;;;;4874347;29;20064;-77
2021/09/17 06:50:26;;;;;;;13.57;4.57;;;;;11.40;101261.00;;;;4875071;29;20064;-77
2021/09/17 06:52:57;;;;;;;8.57;7.85;;;;;11.30;101263.00;;;;4874103;29;20057;-77
2021/09/17 06:55:30;;;;;;;10.50;3.40;;;;;11.30;101249.00;;;;4874531;29;20053;-76
2021/09/17 06:58:01;;;;;;;10.18;2.60;;;;;11.20;101275.00;;;;4873528;29;20525;-77
2021/09/17 07:00:34;;;;;;;4.80;2.50;;;;;11.20;101273.00;;;;4874498;29;20076;-76
2021/09/17 07:03:04;;;;;;;0.40;0.20;;;;;11.10;101264.00;;;;4874129;29;20531;-77
2021/09/17 07:05:34;;;;;;;33.90;31.40;;;;;11.10;101264.00;;;;4874782;29;20592;-77
2021/09/17 07:08:05;;;;;;;9.63;8.73;;;;;11.10;101266.00;;;;4874888;29;20053;-76
2021/09/17 07:10:36;;;;;;;1.98;1.70;;;;;11.00;101259.00;;;;4874245;29;20057;-77
2021/09/17 07:13:06;;;;;;;3.85;1.80;;;;;10.90;101270.00;;;;4873923;29;20070;-76
2021/09/17 07:15:35;;;;;;;3.22;1.20;;;;;10.90;101260.00;;;;4874023;29;20148;-77
2021/09/17 07:18:05;;;;;;;1.23;0.35;;;;;10.90;101279.00;;;;4873655;29;20146;-76
2021/09/17 07:20:36;;;;;;;3.50;1.42;;;;;10.90;101273.00;;;;4874155;29;20060;-76
2021/09/17 07:23:05;;;;;;;4.07;2.00;;;;;10.80;101272.00;;;;4874239;29;20937;-77
2021/09/17 07:25:35;;;;;;;2.05;1.88;;;;;10.80;101243.00;;;;4874062;29;20296;-77
2021/09/17 07:28:09;;;;;;;3.05;1.52;;;;;10.70;101247.00;;;;4874004;29;20402;-76
2021/09/17 07:30:38;;;;;;;8.82;1.98;;;;;10.70;101234.00;;;;4873921;29;20061;-77
2021/09/17 07:33:08;;;;;;;0.57;0.35;;;;;10.60;101255.00;;;;4873600;29;20068;-77
2021/09/17 07:35:37;;;;;;;2.92;2.05;;;;;10.60;101242.00;;;;4874581;29;20080;-76
2021/09/17 07:38:06;;;;;;;3.53;1.67;;;;;10.50;101250.00;;;;4873922;29;20091;-77
2021/09/17 07:40:35;;;;;;;5.88;2.35;;;;;10.50;101253.00;;;;4873762;29;20553;-77
2021/09/17 07:43:04;;;;;;;5.78;1.60;;;;;10.40;101250.00;;;;4873239;29;20342;-77
2021/09/17 07:45:33;;;;;;;2.70;1.52;;;;;10.40;101226.00;;;;4873512;29;20338;-77
2021/09/17 07:48:03;;;;;;;10.05;1.88;;;;;10.40;101251.00;;;;4873812;29;20053;-76
2021/09/17 07:50:32;;;;;;;6.45;2.13;;;;;10.50;101236.00;;;;4873521;29;20360;-77
2021/09/17 07:53:01;;;;;;;5.50;2.35;;;;;10.50;101251.00;;;;4873762;29;20513;-77
2021/09/17 07:55:34;;;;;;;10.48;2.20;;;;;10.60;101237.00;;;;4873254;29;20064;-77
2021/09/17 07:58:04;;;;;;;13.77;2.38;;;;;10.70;101245.00;;;;4873649;29;20088;-77
2021/09/17 08:00:33;;;;;;;3.28;2.08;;;;;10.70;101275.00;;;;4873297;29;20128;-76
2021/09/17 08:03:04;;;;;;;10.82;2.72;;;;;10.80;101251.00;;;;4873416;29;20101;-76
2021/09/17 08:05:34;;;;;;;14.40;3.50;;;;;10.70;101273.00;;;;4873397;29;20064;-77
2021/09/17 08:08:03;;;;;;;6.07;2.72;;;;;10.70;101253.00;;;;4873223;29;20497;-77
2021/09/17 08:10:32;;;;;;;8.40;2.65;;;;;10.60;101246.00;;;;4873678;29;20088;-76
2021/09/17 08:13:02;;;;;;;6.15;2.28;;;;;10.60;101271.00;;;;4873541;29;20077;-76
2021/09/17 08:15:31;;;;;;;3.65;2.08;;;;;10.50;101253.00;;;;4873331;29;20107;-76
2021/09/17 08:18:00;;;;;;;4.90;2.13;;;;;10.50;101258.00;;;;4873386;29;20049;-76
2021/09/17 08:20:29;;;;;;;3.25;1.95;;;;;10.50;101241.00;;;;4871561;29;20042;-77
2021/09/17 08:22:58;;;;;;;4.05;2.08;;;;;10.50;101239.00;;;;4873102;29;20049;-76
2021/09/17 08:25:28;;;;;;;4.10;2.15;;;;;10.50;101261.00;;;;4873320;29;20056;-76
2021/09/17 08:27:58;;;;;;;6.15;2.55;;;;;10.40;101267.00;;;;4872181;29;20567;-76
2021/09/17 08:30:27;;;;;;;13.52;4.88;;;;;10.40;101268.00;;;;4872943;29;20481;-76
2021/09/17 08:32:56;;;;;;;5.97;1.98;;;;;10.30;101255.00;;;;4872658;29;20493;-76
2021/09/17 08:35:25;;;;;;;3.00;2.70;;;;;10.30;101241.00;;;;4872773;29;20049;-76
2021/09/17 08:37:54;;;;;;;5.03;1.27;;;;;10.20;101245.00;;;;4873145;29;20049;-76
2021/09/17 08:40:25;;;;;;;7.53;3.47;;;;;10.20;101237.00;;;;4873069;29;20592;-76
2021/09/17 08:42:54;;;;;;;7.90;3.63;;;;;10.10;101248.00;;;;4872307;29;20055;-76
2021/09/17 08:45:23;;;;;;;8.40;3.58;;;;;10.00;101252.00;;;;4871857;29;20049;-76
2021/09/17 08:47:53;;;;;;;7.03;3.53;;;;;10.00;101254.00;;;;4873458;29;20053;-76
2021/09/17 08:50:22;;;;;;;70.30;43.28;;;;;10.00;101248.00;;;;4872653;29;20052;-75
2021/09/17 08:52:51;;;;;;;10.27;3.97;;;;;10.00;101253.00;;;;4872444;29;20056;-75
2021/09/17 08:55:20;;;;;;;10.98;3.50;;;;;9.90;101276.00;;;;4871269;29;20437;-76
2021/09/17 08:57:50;;;;;;;54.88;5.80;;;;;9.90;101267.00;;;;4872482;29;20049;-76
2021/09/17 09:00:30;;;;;;;32.00;29.42;;;;;9.90;101287.00;;;;4872790;29;20049;-76
2021/09/17 09:03:00;;;;;;;7.85;3.33;;;;;9.90;101257.00;;;;4872612;29;20113;-75
2021/09/17 09:05:33;;;;;;;8.25;3.17;;;;;9.90;101250.00;;;;4873128;29;20057;-76
2021/09/17 09:08:03;;;;;;;36.45;28.17;;;;;9.80;101255.00;;;;4872445;29;20067;-76
2021/09/17 09:10:33;;;;;;;15.10;13.55;;;;;9.80;101249.00;;;;4872350;29;20068;-76
2021/09/17 09:13:07;;;;;;;9.80;2.75;;;;;9.80;101254.00;;;;4871406;29;20049;-76
2021/09/17 09:15:36;;;;;;;399.75;47.78;;;;;9.80;101256.00;;;;4870274;29;20057;-76
2021/09/17 09:18:14;;;;;;;4.90;3.17;;;;;9.80;101237.00;;;;4870865;29;20053;-75
2021/09/17 09:20:46;;;;;;;10.10;3.63;;;;;9.80;101232.00;;;;4869933;29;20088;-76
2021/09/17 09:23:17;;;;;;;;;;;;;9.80;101246.00;;;;4870868;29;20057;-76
2021/09/17 09:26:12;;;;;;;11.82;3.63;;;;;9.80;101254.00;;;;4870331;29;19934;-76
2021/09/17 09:28:44;;;;;;;4.93;2.30;;;;;9.80;101248.00;;;;4871747;29;20063;-76
2021/09/17 09:31:16;;;;;;;8.27;3.72;;;;;9.80;101247.00;;;;4872120;29;20072;-76
2021/09/17 09:33:47;;;;;;;15.27;4.55;;;;;9.80;101252.00;;;;4872256;29;20096;-76
2021/09/17 09:36:20;;;;;;;4.65;2.47;;;;;9.90;101264.00;;;;4870326;29;20125;-76
2021/09/17 09:38:53;;;;;;;5.80;2.03;;;;;9.90;101251.00;;;;4871818;29;20063;-76
2021/09/17 09:41:27;;;;;;;6.53;3.33;;;;;9.90;101263.00;;;;4872338;29;20059;-76
2021/09/17 09:44:00;;;;;;;9.18;3.90;;;;;10.00;101255.00;;;;4871953;29;20049;-76
2021/09/17 09:46:34;;;;;;;5.60;2.75;;;;;10.10;101240.00;;;;4872374;29;20523;-76
2021/09/17 09:49:14;;;;;;;6.90;2.85;;;;;10.10;101232.00;;;;4872310;29;20106;-77
2021/09/17 09:52:14;;;;;;;17.05;9.82;;;;;10.20;101257.00;;;;4870499;29;20056;-76
2021/09/17 09:54:43;;;;;;;0.50;0.28;;;;;10.20;101228.00;;;;4872433;29;20049;-76
2021/09/17 09:57:12;;;;;;;9.52;4.50;;;;;10.30;101252.00;;;;4875593;29;20057;-76
2021/09/17 09:59:41;;;;;;;9.18;3.20;;;;;10.40;101243.00;;;;4875539;29;20056;-76
2021/09/17 10:02:13;;;;;;;10.80;9.60;;;;;10.50;101244.00;;;;4875366;29;20056;-76
2021/09/17 10:04:43;;;;;;;6.03;3.15;;;;;10.60;101248.00;;;;4875959;29;20053;-76
2021/09/17 10:07:18;;;;;;;6.82;2.70;;;;;10.70;101233.00;;;;4875557;29;20057;-76
2021/09/17 10:09:47;;;;;;;7.97;3.55;;;;;10.80;101212.00;;;;4875539;29;20045;-76
2021/09/17 10:12:17;;;;;;;9.48;3.70;;;;;11.00;101187.00;;;;4875207;29;20524;-76
2021/09/17 10:14:48;;;;;;;9.25;3.90;;;;;11.10;101179.00;;;;4873110;29;20059;-76
2021/09/17 10:17:32;;;;;;;11.25;2.92;;;;;11.30;101193.00;;;;4871883;29;20131;-76
2021/09/17 10:20:05;;;;;;;18.40;5.40;;;;;11.50;101197.00;;;;4875078;29;20139;-74
2021/09/17 10:22:43;;;;;;;17.95;4.85;;;;;11.70;101204.00;;;;4875453;29;20055;-75
2021/09/17 10:25:16;;;;;;;19.92;4.55;;;;;11.90;101212.00;;;;4874388;29;20059;-75
2021/09/17 10:28:00;;;;;;;21.48;5.03;;;;;12.10;101198.00;;;;4875302;29;20065;-75
2021/09/17 10:30:34;;;;;;;13.38;3.03;;;;;12.30;101187.00;;;;4874138;29;20064;-74
2021/09/17 10:33:04;;;;;;;7.70;3.22;;;;;12.30;101190.00;;;;4874764;29;20409;-75
2021/09/17 10:35:51;;;;;;;4.65;2.35;;;;;12.60;101214.00;;;;4875073;29;20052;-75
2021/09/17 10:38:41;;;;;;;13.90;3.20;;;;;12.90;101201.00;;;;4874817;29;20059;-75
2021/09/17 10:41:12;;;;;;;5.22;1.95;;;;;13.10;101198.00;;;;4874522;29;20097;-75
2021/09/17 10:44:00;;;;;;;14.35;4.63;;;;;13.20;101202.00;;;;4873582;29;20063;-77
2021/09/17 10:46:33;;;;;;;7.85;2.72;;;;;13.30;101170.00;;;;4874339;29;20045;-75
2021/09/17 10:49:03;;;;;;;6.55;3.08;;;;;13.40;101177.00;;;;4874418;29;20084;-76
2021/09/17 10:51:35;;;;;;;1524.03;764.30;;;;;13.60;101168.00;;;;4874374;29;20061;-77
2021/09/17 10:54:19;;;;;;;61.70;56.72;;;;;14.00;101160.00;;;;4874766;29;20053;-75
2021/09/17 10:56:48;;;;;;;10.98;10.13;;;;;14.30;101155.00;;;;4874152;29;20405;-75
2021/09/17 10:59:25;;;;;;;5.00;1.77;;;;;14.70;101146.00;;;;4874369;29;20064;-76
2021/09/17 11:02:01;;;;;;;5.93;2.28;;;;;15.00;101129.00;;;;4874342;29;20554;-76
2021/09/17 11:04:42;;;;;;;1.13;1.08;;;;;14.90;101163.00;;;;4874176;29;20157;-76
2021/09/17 11:07:17;;;;;;;1.35;0.43;;;;;14.40;101147.00;;;;4874360;29;20056;-76
2021/09/17 11:09:49;;;;;;;102.35;91.97;;;;;14.20;101172.00;;;;4874659;29;20722;-76
2021/09/17 11:12:20;;;;;;;12.15;4.03;;;;;13.90;101160.00;;;;4874491;29;20067;-75
2021/09/17 11:15:01;;;;;;;8.30;3.70;;;;;14.40;101160.00;;;;4874488;29;20053;-76
2021/09/17 11:17:49;;;;;;;14.32;3.58;;;;;14.80;101156.00;;;;4873696;29;20060;-76
2021/09/17 11:20:36;;;;;;;49.38;46.08;;;;;14.30;101164.00;;;;4874168;29;20524;-76
2021/09/17 11:23:08;;;;;;;13.10;3.05;;;;;14.20;101168.00;;;;4874404;29;20087;-76
2021/09/17 11:25:45;;;;;;;6.57;3.38;;;;;14.50;101175.00;;;;4872247;29;20057;-76
2021/09/17 11:28:27;;;;;;;11.02;3.78;;;;;14.70;101168.00;;;;4873516;29;20144;-76
2021/09/17 11:31:16;;;;;;;18.02;14.75;;;;;14.80;101179.00;;;;4874131;29;20061;-75
2021/09/17 11:33:56;;;;;;;6.93;3.30;;;;;14.70;101174.00;;;;4874168;29;20056;-75
2021/09/17 11:36:42;;;;;;;6.57;3.60;;;;;14.50;101202.00;;;;4873574;29;20067;-75
2021/09/17 11:39:21;;;;;;;7.35;4.63;;;;;14.50;101204.00;;;;4874103;29;20064;-76
2021/09/17 11:41:52;;;;;;;23.30;5.43;;;;;14.50;101211.00;;;;4874919;29;20176;-76
2021/09/17 11:44:51;;;;;;;11.93;4.65;;;;;14.60;101224.00;;;;4873386;29;20736;-76
2021/09/17 11:47:33;;;;;;;15.18;5.03;;;;;14.70;101233.00;;;;4873407;29;20055;-76
2021/09/17 11:50:15;;;;;;;20.40;6.10;;;;;14.60;101229.00;;;;4873467;29;20060;-76
2021/09/17 11:52:48;;;;;;;19.65;5.60;;;;;14.70;101217.00;;;;4873079;29;20505;-76
2021/09/17 11:55:19;;;;;;;8.63;4.03;;;;;15.00;101202.00;;;;4873495;29;20057;-76
2021/09/17 11:57:51;;;;;;;11.38;3.72;;;;;15.40;101194.00;;;;4873552;29;20071;-76
2021/09/17 12:00:23;;;;;;;9.20;5.03;;;;;15.60;101209.00;;;;4873860;29;20053;-76
2021/09/17 12:03:06;;;;;;;9.75;3.63;;;;;16.00;101189.00;;;;4873648;29;20053;-77
2021/09/17 12:05:38;;;;;;;4.72;3.03;;;;;16.50;101171.00;;;;4873338;29;20156;-77
2021/09/17 12:08:07;;;;;;;4.55;3.15;;;;;17.00;101180.00;;;;4873207;29;20057;-77
2021/09/17 12:10:39;;;;;;;5.80;3.72;;;;;16.40;101212.00;;;;4872780;29;20512;-77
2021/09/17 12:13:13;;;;;;;16.42;6.00;;;;;16.30;101207.00;;;;4872699;29;20092;-74
2021/09/17 12:15:44;;;;;;;6.72;6.15;;;;;16.30;101186.00;;;;4873194;29;20080;-74
2021/09/17 12:18:16;;;;;;;0.13;0.10;;;;;16.30;101215.00;;;;4872686;29;20471;-73
2021/09/17 12:20:56;;;;;;;4.00;2.55;;;;;16.20;101233.00;;;;4873494;29;20079;-75